Time;durP1;ratioP1;P1;durP2;ratioP2;P2;SDS_P1;SDS_P2;PMS_P1;PMS_P2;Temp;Humidity;BMP_temperature;BMP_pressure;BME280_temperature;BME280_humidity;BME280_pressure;Samples;Min_cycle;Max_cycle;Signal;HPM_P1;HPM_P2
2021/05/08 00:00:45;;;;;;;2.03;0.95;;;409.80;2252.80;;;;;;5075542;28;20034;-84
2021/05/08 00:03:23;;;;;;;2.20;1.10;;;409.80;2278.40;;;;;;5092999;28;20032;-88
2021/05/08 00:06:02;;;;;;;2.28;1.15;;;409.70;2329.60;;;;;;5075339;28;20050;-87
2021/05/08 00:08:56;;;;;;;3.75;1.20;;;384.90;2329.60;;;;;;5091639;28;20059;-87
2021/05/08 00:11:23;;;;;;;4.43;1.10;;;384.90;2329.60;;;;;;5060167;28;20028;-85
2021/05/08 00:13:49;;;;;;;2.03;1.25;;;409.60;2355.20;;;;;;5075387;28;20032;-87
2021/05/08 00:16:16;;;;;;;1.73;0.90;;;384.80;2329.60;;;;;;5075272;28;20426;-87
2021/05/08 00:18:42;;;;;;;5.40;1.42;;;409.70;2355.20;;;;;;5076789;28;20056;-84
2021/05/08 00:21:08;;;;;;;2.33;1.25;;;409.70;2355.20;;;;;;5075216;28;20576;-87
2021/05/08 00:23:34;;;;;;;4.00;1.83;;;409.70;2355.20;;;;;;5075629;28;20111;-84
2021/05/08 00:26:22;;;;;;;3.50;1.50;;;384.70;2329.60;;;;;;5075229;28;20385;-85
2021/05/08 00:30:01;;;;;;;3.00;1.77;;;384.60;2329.60;;;;;;5076045;28;20035;-87
2021/05/08 00:32:46;;;;;;;4.57;1.85;;;384.40;2329.60;;;;;;5074404;28;20385;-87
2021/05/08 00:35:22;;;;;;;2.92;1.90;;;384.10;2329.60;;;;;;5074463;28;20043;-84
2021/05/08 00:37:52;;;;;;;4.55;2.40;;;384.30;2329.60;;;;;;5074374;28;20071;-86
2021/05/08 00:40:20;;;;;;;3.28;2.13;;;384.20;2329.60;;;;;;5075388;28;20111;-86
2021/05/08 00:42:48;;;;;;;3.67;2.20;;;384.30;2329.60;;;;;;5075205;28;20373;-86
2021/05/08 00:45:18;;;;;;;3.40;2.20;;;384.10;2329.60;;;;;;5058518;28;20025;-87
2021/05/08 00:48:12;;;;;;;3.20;2.20;;;384.00;2329.60;;;;;;5076280;28;20025;-85
2021/05/08 00:51:27;;;;;;;3.80;2.53;;;384.00;2329.60;;;;;;5072866;28;20025;-86
2021/05/08 00:54:03;;;;;;;3.70;2.60;;;384.00;2329.60;;;;;;5072840;28;20040;-86
2021/05/08 00:57:15;;;;;;;3.50;2.60;;;359.30;2329.60;;;;;;5075480;28;20036;-86
2021/05/08 01:00:28;;;;;;;5.03;3.35;;;359.30;2329.60;;;;;;5057826;28;20082;-86
2021/05/08 01:03:51;;;;;;;;;;;;;;;;;;;;;
2021/05/08 01:07:10;;;;;;;3.72;2.85;;;359.30;2329.60;;;;;;5068806;28;20047;-85
2021/05/08 01:10:16;;;;;;;4.05;3.15;;;359.30;2329.60;;;;;;5064210;28;20102;-86
2021/05/08 01:12:57;;;;;;;3.85;2.85;;;384.10;2329.60;;;;;;5074332;28;20127;-84
2021/05/08 01:15:53;;;;;;;4.68;3.42;;;384.10;2329.60;;;;;;5072215;28;20033;-86
2021/05/08 01:18:41;;;;;;;3.70;2.58;;;384.10;2329.60;;;;;;5071550;28;20034;-87
2021/05/08 01:21:30;;;;;;;4.18;2.50;;;384.00;2329.60;;;;;;5071100;28;20040;-87
2021/05/08 01:27:38;;;;;;;3.20;2.05;;;384.10;2329.60;;;;;;5067679;28;20016;-87
2021/05/08 01:31:08;;;;;;;3.30;2.10;;;384.10;2329.60;;;;;;5074073;28;20040;-85
2021/05/08 01:34:08;;;;;;;3.00;1.80;;;359.30;2329.60;;;;;;5072483;28;20032;-86
2021/05/08 01:37:31;;;;;;;3.40;1.60;;;359.30;2329.60;;;;;;5072573;28;20036;-88
2021/05/08 01:40:59;;;;;;;;;;;;;;;;;;;;;
2021/05/08 01:43:42;;;;;;;4.50;1.40;;;359.20;2329.60;;;;;;5077609;28;20581;-84
2021/05/08 01:46:21;;;;;;;2.10;1.10;;;359.10;2329.60;;;;;;5057889;28;20029;-85
2021/05/08 01:49:49;;;;;;;2.58;1.00;;;359.10;2329.60;;;;;;5072350;28;20048;-85
2021/05/08 01:52:24;;;;;;;1.98;0.95;;;359.00;2329.60;;;;;;5070056;28;20499;-85
2021/05/08 02:40:06;;;;;;;3.53;1.17;;;358.50;2329.60;;;;;;4878815;29;20187;-86
2021/05/08 02:43:30;;;;;;;2.65;1.30;;;358.40;2329.60;;;;;;4877614;29;20033;-87
2021/05/08 04:59:06;;;;;;;6.40;1.70;;;358.50;2329.60;;;;;;4992819;28;20026;-84
2021/05/08 05:16:38;;;;;;;2.65;1.50;;;358.40;2329.60;;;;;;4898971;29;20111;-84
2021/05/08 05:30:10;;;;;;;3.83;1.65;;;358.50;2329.60;;;;;;4842731;29;20112;-85
2021/05/08 05:33:19;;;;;;;2.65;1.55;;;358.60;2329.60;;;;;;4856472;29;20484;-85
2021/05/08 05:36:27;;;;;;;2.90;1.38;;;358.70;2329.60;;;;;;4896837;29;20047;-82
2021/05/08 05:39:29;;;;;;;3.55;1.60;;;358.80;2329.60;;;;;;4919780;28;20046;-83
2021/05/08 05:41:55;;;;;;;3.42;2.00;;;358.90;2329.60;;;;;;5011989;28;20041;-87
2021/05/08 05:44:47;;;;;;;3.25;1.80;;;358.80;2329.60;;;;;;5048457;28;20124;-85
2021/05/08 05:54:05;;;;;;;3.33;1.80;;;358.90;2329.60;;;;;;5056841;28;20058;-84
2021/05/08 06:07:40;;;;;;;4.20;2.28;;;359.00;2252.80;;;;;;4973907;28;20027;-86
2021/05/08 06:13:54;;;;;;;3.83;1.60;;;359.00;2252.80;;;;;;4933709;29;20034;-85
2021/05/08 06:19:24;;;;;;;3.75;2.20;;;359.10;1843.20;;;;;;4993193;28;19956;-85
2021/05/08 06:21:50;;;;;;;5.22;3.20;;;359.20;1894.40;;;;;;5060741;28;20029;-84
2021/05/08 06:24:34;;;;;;;5.85;3.10;;;359.20;1894.40;;;;;;5036383;28;20091;-85
2021/05/08 06:30:35;;;;;;;7.07;5.68;;;384.00;1868.80;;;;;;5035885;28;20562;-85
2021/05/08 06:37:00;;;;;;;;;;;;;;;;;;;;;
2021/05/08 06:39:47;;;;;;;5.45;3.15;;;384.00;1817.60;;;;;;4994304;28;20023;-83
2021/05/08 06:42:53;;;;;;;;;;;;;;;;;;;;;
2021/05/08 06:45:33;;;;;;;5.07;2.75;;;384.10;1715.20;;;;;;5058484;28;20041;-84
2021/05/08 06:48:01;;;;;;;4.88;2.75;;;384.20;1715.20;;;;;;5088440;28;20492;-86
2021/05/08 06:50:35;;;;;;;5.10;3.30;;;384.20;1766.40;;;;;;5039253;28;20031;-84
2021/05/08 06:53:34;;;;;;;4.65;2.60;;;384.10;1740.80;;;;;;5052705;28;20025;-85
2021/05/08 06:56:03;;;;;;;5.43;2.35;;;384.10;1715.20;;;;;;5045095;28;20838;-85
2021/05/08 06:58:32;;;;;;;4.25;2.78;;;384.00;1715.20;;;;;;5052612;28;20466;-85
2021/05/08 07:00:58;;;;;;;4.32;2.33;;;384.00;1715.20;;;;;;5052729;28;20025;-83
2021/05/08 07:03:35;;;;;;;9.70;4.10;;;384.00;1689.60;;;;;;5052510;28;20029;-83
2021/05/08 07:06:01;;;;;;;4.80;2.45;;;384.10;1689.60;;;;;;5051431;28;20076;-83
2021/05/08 07:08:27;;;;;;;5.28;2.45;;;384.10;1689.60;;;;;;5052431;28;20358;-81
2021/05/08 07:10:59;;;;;;;3.53;2.38;;;384.30;1689.60;;;;;;5052011;28;20032;-84
2021/05/08 07:13:49;;;;;;;4.28;2.50;;;384.50;1689.60;;;;;;5052528;28;20124;-85
2021/05/08 07:16:15;;;;;;;5.25;2.72;;;384.60;1664.00;;;;;;5052153;28;20091;-85
2021/05/08 07:18:42;;;;;;;3.60;2.08;;;384.80;1638.40;;;;;;5057292;28;20500;-84
2021/05/08 07:21:09;;;;;;;4.35;2.60;;;384.90;1638.40;;;;;;5070814;28;20032;-81
2021/05/08 07:23:35;;;;;;;5.35;2.40;;;384.60;1638.40;;;;;;5055452;28;20083;-86
2021/05/08 07:26:01;;;;;;;7.10;4.10;;;384.90;1689.60;;;;;;5071794;28;20481;-86
2021/05/08 07:28:27;;;;;;;5.35;3.45;;;384.70;1740.80;;;;;;5052343;28;20469;-86
2021/05/08 07:30:55;;;;;;;6.60;3.47;;;384.80;1715.20;;;;;;5070310;28;20224;-86
2021/05/08 07:33:22;;;;;;;3.60;2.45;;;384.90;1715.20;;;;;;5055174;28;20481;-86
2021/05/08 07:35:50;;;;;;;9.48;2.80;;;384.90;1689.60;;;;;;5057411;28;20037;-85
2021/05/08 07:38:17;;;;;;;6.00;3.30;;;384.30;1689.60;;;;;;5059405;28;20028;-85
2021/05/08 07:40:48;;;;;;;7.57;4.05;;;384.50;1715.20;;;;;;5046157;28;20085;-83
2021/05/08 07:43:34;;;;;;;5.15;3.25;;;384.40;1689.60;;;;;;5073831;28;20563;-87
2021/05/08 07:46:23;;;;;;;6.18;2.75;;;384.60;1689.60;;;;;;5064941;28;20039;-85
2021/05/08 07:49:17;;;;;;;4.95;2.22;;;384.70;1715.20;;;;;;5078727;28;20012;-87
2021/05/08 07:51:42;;;;;;;5.50;2.58;;;384.60;1638.40;;;;;;5078419;28;20036;-85
2021/05/08 08:01:32;;;;;;;3.80;2.50;;;384.40;1664.00;;;;;;4982340;28;20450;-88
2021/05/08 08:04:20;;;;;;;5.35;3.08;;;384.50;1689.60;;;;;;4921253;29;20065;-86
2021/05/08 08:06:46;;;;;;;4.20;2.72;;;384.40;1664.00;;;;;;4921766;29;20398;-86
2021/05/08 08:09:14;;;;;;;4.70;2.90;;;384.30;1689.60;;;;;;4922151;29;20028;-85
2021/05/08 08:12:31;;;;;;;4.30;2.70;;;384.70;1664.00;;;;;;4937961;29;20047;-86
2021/05/08 08:14:56;;;;;;;8.23;3.80;;;384.70;1638.40;;;;;;4977737;28;20113;-89
2021/05/08 08:17:23;;;;;;;5.22;3.67;;;384.70;1664.00;;;;;;5040836;28;20079;-86
2021/05/08 08:19:50;;;;;;;4.28;2.80;;;409.60;1689.60;;;;;;5073552;28;20021;-86
2021/05/08 08:22:16;;;;;;;6.07;3.20;;;409.70;1638.40;;;;;;5059680;28;20021;-87
2021/05/08 08:24:49;;;;;;;6.07;2.60;;;409.90;1612.80;;;;;;5057714;28;20024;-86
2021/05/08 08:27:16;;;;;;;;;;;409.70;1587.20;;;;;;5057245;28;20063;-85
2021/05/08 08:29:46;;;;;;;4.80;3.53;;;384.90;1638.40;;;;;;5075142;28;19913;-87
2021/05/08 08:32:16;;;;;;;5.28;3.33;;;384.70;1664.00;;;;;;5058861;28;20389;-86
2021/05/08 08:34:42;;;;;;;5.97;3.53;;;384.80;1638.40;;;;;;5057886;28;20060;-86
2021/05/08 08:37:10;;;;;;;5.13;3.20;;;409.90;1638.40;;;;;;5055443;28;20096;-86
2021/05/08 08:39:37;;;;;;;5.10;3.35;;;409.90;1638.40;;;;;;5054890;28;20171;-87
2021/05/08 08:42:07;;;;;;;5.53;3.05;;;409.90;1612.80;;;;;;5038711;28;20037;-87
2021/05/08 08:44:34;;;;;;;6.10;2.72;;;409.90;1587.20;;;;;;5055925;28;20025;-88
2021/05/08 08:47:47;;;;;;;4.65;3.15;;;409.90;1612.80;;;;;;5055274;28;20029;-86
2021/05/08 08:50:35;;;;;;;6.53;3.13;;;409.90;1587.20;;;;;;5041533;28;20029;-88
2021/05/08 08:53:12;;;;;;;5.72;2.53;;;410.00;1561.60;;;;;;5055712;28;20036;-86
2021/05/08 08:55:48;;;;;;;6.68;3.55;;;410.10;1587.20;;;;;;5070636;28;20048;-86
2021/05/08 08:58:15;;;;;;;6.07;3.00;;;410.00;1587.20;;;;;;5055299;28;20478;-87
2021/05/08 09:00:41;;;;;;;6.32;3.03;;;410.00;1561.60;;;;;;5055578;28;20371;-87
2021/05/08 09:03:07;;;;;;;5.15;3.08;;;410.30;1536.00;;;;;;5055812;28;20044;-87
2021/05/08 09:05:33;;;;;;;9.13;3.53;;;410.30;1561.60;;;;;;5056881;28;20048;-87
2021/05/08 09:08:08;;;;;;;5.88;2.80;;;410.50;1561.60;;;;;;5060484;28;20116;-86
2021/05/08 09:10:34;;;;;;;7.03;3.17;;;410.30;1536.00;;;;;;5065157;28;20120;-85
2021/05/08 09:13:03;;;;;;;5.03;3.00;;;410.50;1561.60;;;;;;5061745;28;20029;-85
2021/05/08 09:15:49;;;;;;;7.78;2.75;;;435.20;1536.00;;;;;;5055817;28;20095;-87
2021/05/08 09:18:32;;;;;;;4.70;2.55;;;410.40;1510.40;;;;;;5054706;28;20025;-87
2021/05/08 09:20:58;;;;;;;5.70;3.03;;;435.30;1536.00;;;;;;5054731;28;20052;-85
2021/05/08 09:23:29;;;;;;;6.05;3.45;;;410.50;1536.00;;;;;;5054988;28;20036;-87
2021/05/08 09:26:02;;;;;;;6.20;2.88;;;435.20;1536.00;;;;;;5056353;28;20025;-89
2021/05/08 09:28:29;;;;;;;5.18;2.78;;;435.30;1484.80;;;;;;5058713;28;20021;-86
2021/05/08 09:30:56;;;;;;;6.95;2.83;;;435.50;1484.80;;;;;;5056849;28;20036;-87
2021/05/08 09:33:27;;;;;;;5.40;2.80;;;435.90;1484.80;;;;;;5054708;28;20039;-87
2021/05/08 09:36:10;;;;;;;5.70;2.80;;;460.80;1459.20;;;;;;5057297;28;20056;-86
2021/05/08 09:38:41;;;;;;;4.32;2.65;;;460.90;1484.80;;;;;;5058065;28;20056;-86
2021/05/08 09:41:11;;;;;;;5.40;3.10;;;460.90;1459.20;;;;;;5058434;28;20370;-86
2021/05/08 09:43:37;;;;;;;5.20;2.90;;;460.80;1459.20;;;;;;5057763;28;20032;-86
2021/05/08 09:46:07;;;;;;;4.53;2.70;;;461.10;1433.60;;;;;;5057472;28;20020;-86
2021/05/08 09:48:38;;;;;;;4.90;3.03;;;461.20;1459.20;;;;;;5057846;28;20035;-87
2021/05/08 09:51:24;;;;;;;5.72;3.25;;;436.10;1459.20;;;;;;5056505;28;20040;-85
2021/05/08 09:53:55;;;;;;;7.10;3.42;;;460.80;1459.20;;;;;;5057843;28;20029;-84
2021/05/08 09:56:41;;;;;;;5.97;2.75;;;461.20;1433.60;;;;;;5057497;28;20024;-84
2021/05/08 09:59:36;;;;;;;6.75;3.33;;;461.20;1433.60;;;;;;5057393;28;20029;-84
2021/05/08 10:02:02;;;;;;;4.35;2.80;;;461.30;1433.60;;;;;;5057260;28;20028;-85
2021/05/08 10:04:32;;;;;;;6.68;4.57;;;461.20;1408.00;;;;;;5057321;28;20035;-85
2021/05/08 10:07:11;;;;;;;4.72;2.95;;;461.70;1382.40;;;;;;5057052;28;20051;-85
2021/05/08 10:09:39;;;;;;;3.80;2.53;;;486.80;1331.20;;;;;;5057256;28;20388;-84
2021/05/08 10:12:10;;;;;;;6.15;2.72;;;486.70;1331.20;;;;;;5056770;28;20032;-85
2021/05/08 10:14:38;;;;;;;4.97;2.40;;;486.70;1356.80;;;;;;5057482;28;20051;-85
2021/05/08 10:17:04;;;;;;;6.35;3.33;;;487.00;1356.80;;;;;;5057013;28;20020;-85
2021/05/08 10:19:32;;;;;;;7.20;2.90;;;487.00;1356.80;;;;;;5059094;28;20050;-85
2021/05/08 10:22:01;;;;;;;4.55;2.60;;;487.20;1305.60;;;;;;5076864;28;20477;-84
2021/05/08 10:24:29;;;;;;;3.80;2.30;;;487.30;1280.00;;;;;;5076266;28;20097;-85
2021/05/08 10:26:59;;;;;;;4.40;2.50;;;512.10;1280.00;;;;;;5076445;28;20024;-84
2021/05/08 10:29:35;;;;;;;11.50;3.08;;;512.00;1280.00;;;;;;5077314;28;20024;-84
2021/05/08 10:32:03;;;;;;;5.03;2.67;;;487.10;1280.00;;;;;;5076272;28;20066;-85
2021/05/08 10:34:59;;;;;;;3.60;2.30;;;487.10;1305.60;;;;;;5076126;28;20031;-85
2021/05/08 10:37:25;;;;;;;4.25;2.30;;;486.70;1331.20;;;;;;5065786;28;20055;-85
2021/05/08 10:40:12;;;;;;;4.57;2.60;;;487.30;1305.60;;;;;;5067277;28;20033;-84
2021/05/08 10:42:47;;;;;;;6.15;2.70;;;487.00;1305.60;;;;;;5054441;28;20059;-83
2021/05/08 10:45:15;;;;;;;7.50;2.97;;;487.30;1305.60;;;;;;5053131;28;20033;-83
2021/05/08 10:47:56;;;;;;;5.18;3.13;;;512.50;1280.00;;;;;;5069441;28;20094;-81
2021/05/08 10:50:37;;;;;;;8.25;2.58;;;487.30;1280.00;;;;;;5053588;28;20025;-83
2021/05/08 10:53:19;;;;;;;9.68;3.00;;;512.30;1280.00;;;;;;5051892;28;20029;-82
2021/05/08 10:55:52;;;;;;;4.78;2.78;;;512.90;1228.80;;;;;;5065386;28;20024;-84
2021/05/08 10:58:22;;;;;;;6.43;3.20;;;512.20;1254.40;;;;;;5050903;28;20032;-82
2021/05/08 11:00:52;;;;;;;5.88;3.65;;;487.20;1280.00;;;;;;5072197;28;20033;-83
2021/05/08 11:03:24;;;;;;;6.00;4.15;;;512.10;1280.00;;;;;;5062265;28;20036;-83
2021/05/08 11:30:25;;;;;;;4.82;3.35;;;512.90;1203.20;;;;;;4964613;28;20538;-85
2021/05/08 11:32:50;;;;;;;4.68;2.90;;;512.40;1254.40;;;;;;4993386;28;20038;-86
2021/05/08 11:35:25;;;;;;;4.13;2.65;;;512.20;1254.40;;;;;;5023649;28;20060;-89
2021/05/08 11:37:51;;;;;;;9.73;5.95;;;537.60;1305.60;;;;;;5054398;28;20049;-87
2021/05/08 11:40:30;;;;;;;9.65;3.03;;;512.10;1254.40;;;;;;5067870;28;20035;-83
2021/05/08 11:42:56;;;;;;;4.03;2.47;;;487.00;1254.40;;;;;;5071250;28;20032;-84
2021/05/08 11:45:22;;;;;;;5.35;2.63;;;487.10;1254.40;;;;;;5070087;28;20029;-83
2021/05/08 11:47:47;;;;;;;4.22;2.40;;;487.10;1228.80;;;;;;5074075;28;20021;-85
2021/05/08 11:50:14;;;;;;;6.22;3.53;;;487.30;1254.40;;;;;;5084040;28;20096;-83
2021/05/08 11:52:44;;;;;;;6.25;2.92;;;487.30;1228.80;;;;;;5096202;28;20013;-85
2021/05/08 11:55:13;;;;;;;3.90;2.35;;;487.00;1254.40;;;;;;5092243;28;20036;-84
2021/05/08 11:57:48;;;;;;;3.58;2.33;;;486.70;1254.40;;;;;;5079690;28;20024;-83
2021/05/08 12:00:14;;;;;;;3.55;2.20;;;486.80;1280.00;;;;;;5091076;28;20027;-82
2021/05/08 12:02:43;;;;;;;3.78;2.25;;;512.30;1280.00;;;;;;5094263;28;20076;-81
2021/05/08 12:05:09;;;;;;;4.22;2.13;;;512.40;1280.00;;;;;;5093103;28;20028;-81
2021/05/08 12:07:44;;;;;;;4.22;2.35;;;487.30;1254.40;;;;;;5075912;28;20059;-80
2021/05/08 12:10:22;;;;;;;5.25;2.70;;;512.20;1228.80;;;;;;5073824;28;20024;-81
2021/05/08 12:12:52;;;;;;;4.72;2.88;;;512.10;1228.80;;;;;;5073030;28;20033;-83
2021/05/08 12:15:42;;;;;;;9.73;4.03;;;512.90;1228.80;;;;;;5076690;28;20028;-81
2021/05/08 12:18:14;;;;;;;4.88;2.63;;;512.70;1254.40;;;;;;5074578;28;20029;-81
2021/05/08 12:20:46;;;;;;;6.20;2.53;;;512.30;1228.80;;;;;;5058224;28;20029;-82
2021/05/08 12:23:13;;;;;;;3.72;2.05;;;512.10;1280.00;;;;;;5056558;28;20044;-82
2021/05/08 12:25:39;;;;;;;5.07;1.95;;;512.00;1254.40;;;;;;5056959;28;20029;-83
2021/05/08 12:28:18;;;;;;;4.82;2.33;;;512.10;1280.00;;;;;;5058392;28;20032;-83
2021/05/08 12:30:47;;;;;;;5.40;2.92;;;512.00;1280.00;;;;;;5059413;28;20123;-81
2021/05/08 12:33:23;;;;;;;4.63;2.53;;;487.10;1254.40;;;;;;5059790;28;20033;-83
2021/05/08 12:35:51;;;;;;;5.15;2.70;;;512.30;1254.40;;;;;;5066797;28;20024;-80
2021/05/08 12:38:16;;;;;;;36.00;24.80;;;538.00;1254.40;;;;;;5082443;28;20056;-81
2021/05/08 12:40:44;;;;;;;6.68;4.20;;;538.00;1177.60;;;;;;5066898;28;20020;-82
2021/05/08 12:43:10;;;;;;;8.75;6.00;;;538.10;1152.00;;;;;;5075613;28;20032;-80
2021/05/08 12:46:06;;;;;;;7.47;4.90;;;538.40;1152.00;;;;;;5076313;28;20087;-81
2021/05/08 12:48:36;;;;;;;4.75;2.70;;;563.30;1177.60;;;;;;5081710;28;20071;-81
2021/05/08 12:51:03;;;;;;;6.32;2.70;;;563.80;1177.60;;;;;;5074503;28;20364;-82
2021/05/08 12:53:28;;;;;;;4.50;2.30;;;588.90;1152.00;;;;;;5073517;28;20021;-80
2021/05/08 12:56:03;;;;;;;9.25;4.38;;;589.10;1100.80;;;;;;5072511;28;20025;-82
2021/05/08 12:58:37;;;;;;;4.07;2.38;;;588.90;1126.40;;;;;;5072811;28;20028;-81
2021/05/08 13:01:04;;;;;;;4.28;2.10;;;589.30;1075.20;;;;;;5072495;28;20029;-83
2021/05/08 13:06:04;;;;;;;7.90;3.55;;;563.20;1152.00;;;;;;5057520;28;20032;-85
2021/05/08 13:08:46;;;;;;;7.07;3.40;;;538.40;1126.40;;;;;;5056888;28;20033;-82
2021/05/08 13:11:42;;;;;;;6.80;3.78;;;538.20;1152.00;;;;;;5056991;28;20021;-82
2021/05/08 13:14:24;;;;;;;6.38;4.15;;;538.10;1152.00;;;;;;5071807;28;20031;-81
2021/05/08 13:16:55;;;;;;;5.90;2.97;;;563.50;1152.00;;;;;;5071787;28;20468;-81
2021/05/08 13:19:22;;;;;;;5.07;2.55;;;588.80;1152.00;;;;;;5071380;28;20079;-82
2021/05/08 13:21:50;;;;;;;12.38;6.50;;;564.10;1100.80;;;;;;5071163;28;20083;-82
2021/05/08 13:24:27;;;;;;;12.38;5.90;;;563.60;1100.80;;;;;;5070939;28;20036;-80
2021/05/08 13:26:53;;;;;;;51.17;33.90;;;564.10;1126.40;;;;;;5071017;28;20033;-81
2021/05/08 13:29:19;;;;;;;15.73;7.65;;;588.80;1100.80;;;;;;5054323;28;20032;-83
2021/05/08 13:31:45;;;;;;;17.20;9.60;;;588.90;1100.80;;;;;;5070747;28;20029;-81
2021/05/08 13:34:11;;;;;;;18.02;7.97;;;564.00;1075.20;;;;;;5055486;28;20112;-81
2021/05/08 13:36:36;;;;;;;9.82;4.88;;;563.70;1100.80;;;;;;5069204;28;20048;-80
2021/05/08 13:39:04;;;;;;;5.20;2.58;;;563.90;1152.00;;;;;;5068771;28;20024;-81
2021/05/08 13:41:30;;;;;;;16.65;11.57;;;538.50;1100.80;;;;;;5070307;28;20039;-82
2021/05/08 13:43:56;;;;;;;13.18;7.47;;;538.40;1100.80;;;;;;5070601;28;20089;-80
2021/05/08 13:46:22;;;;;;;7.10;4.43;;;563.50;1100.80;;;;;;5069287;28;20032;-82
2021/05/08 13:48:48;;;;;;;3.72;2.10;;;563.40;1100.80;;;;;;5069257;28;20020;-81
2021/05/08 13:51:13;;;;;;;8.75;4.45;;;538.30;1100.80;;;;;;5057158;28;20031;-81
2021/05/08 13:53:40;;;;;;;11.00;6.03;;;563.60;1100.80;;;;;;5058187;28;20028;-80
2021/05/08 13:56:06;;;;;;;5.05;2.97;;;563.40;1152.00;;;;;;5074038;28;20381;-81
2021/05/08 13:58:33;;;;;;;25.27;18.13;;;563.70;1100.80;;;;;;5074067;28;20030;-78
2021/05/08 14:00:59;;;;;;;13.27;10.00;;;563.40;1100.80;;;;;;5073142;28;20021;-79
2021/05/08 14:03:24;;;;;;;8.60;4.07;;;563.70;1100.80;;;;;;5073571;28;20030;-79
2021/05/08 14:05:50;;;;;;;12.07;6.15;;;564.00;1100.80;;;;;;5073477;28;20025;-80
2021/05/08 14:08:16;;;;;;;4.80;2.22;;;589.50;1100.80;;;;;;5074555;28;20024;-81
2021/05/08 14:10:42;;;;;;;5.18;2.33;;;614.50;1024.00;;;;;;5074261;28;20445;-80
2021/05/08 14:13:08;;;;;;;4.25;2.10;;;589.40;1100.80;;;;;;5073353;28;20461;-80
2021/05/08 14:15:33;;;;;;;4.60;2.40;;;564.10;1075.20;;;;;;5072629;28;20024;-80
2021/05/08 14:17:59;;;;;;;4.63;1.75;;;563.60;1075.20;;;;;;5068368;28;20024;-79
2021/05/08 14:20:26;;;;;;;4.45;1.95;;;563.20;1100.80;;;;;;5052820;28;20032;-82
2021/05/08 14:22:52;;;;;;;8.25;3.95;;;563.60;1100.80;;;;;;5052492;28;20025;-78
2021/05/08 14:25:18;;;;;;;6.70;2.75;;;588.90;1075.20;;;;;;5069408;28;20035;-79
2021/05/08 14:27:44;;;;;;;8.90;4.72;;;589.30;1049.60;;;;;;5070084;28;20534;-79
2021/05/08 14:30:11;;;;;;;5.55;2.13;;;589.20;1075.20;;;;;;5054924;28;20095;-79
2021/05/08 14:32:41;;;;;;;4.88;2.13;;;614.60;1075.20;;;;;;5053537;28;20029;-81
2021/05/08 14:35:08;;;;;;;7.95;4.35;;;589.70;1024.00;;;;;;5052554;28;20028;-78
2021/05/08 14:37:34;;;;;;;5.15;2.20;;;589.70;1024.00;;;;;;5052329;28;20052;-81
2021/05/08 14:40:00;;;;;;;4.90;2.90;;;589.10;1049.60;;;;;;5054473;28;20100;-82
2021/05/08 14:42:26;;;;;;;8.93;2.65;;;589.40;1049.60;;;;;;5052992;28;20029;-83
2021/05/08 14:44:52;;;;;;;5.22;2.22;;;589.40;1049.60;;;;;;5052980;28;20056;-81
2021/05/08 14:47:17;;;;;;;7.05;2.70;;;614.80;1024.00;;;;;;5069750;28;20459;-78
2021/05/08 14:49:44;;;;;;;5.10;2.40;;;615.20;1024.00;;;;;;5052503;28;20040;-80
2021/05/08 14:52:10;;;;;;;4.97;2.15;;;615.30;998.40;;;;;;5053988;28;20448;-81
2021/05/08 14:54:36;;;;;;;3.53;2.10;;;615.10;998.40;;;;;;5069315;28;20207;-79
2021/05/08 14:57:03;;;;;;;5.38;3.03;;;615.30;972.80;;;;;;5053466;28;20029;-81
2021/05/08 14:59:29;;;;;;;8.98;7.00;;;615.00;972.80;;;;;;5052739;28;20025;-82
2021/05/08 15:01:56;;;;;;;9.15;5.15;;;615.00;972.80;;;;;;5068065;28;20029;-81
2021/05/08 15:04:23;;;;;;;5.90;3.15;;;614.50;972.80;;;;;;5053532;28;20029;-85
2021/05/08 15:06:48;;;;;;;3.75;2.13;;;614.50;972.80;;;;;;5052680;28;20040;-83
2021/05/08 15:09:15;;;;;;;4.80;2.40;;;614.60;998.40;;;;;;5052265;28;20025;-80
2021/05/08 15:11:41;;;;;;;9.10;2.42;;;614.40;972.80;;;;;;5052665;28;20099;-81
2021/05/08 15:14:07;;;;;;;6.30;2.42;;;589.60;998.40;;;;;;5052645;28;20033;-84
2021/05/08 15:16:33;;;;;;;15.85;3.10;;;614.40;972.80;;;;;;5053575;28;20028;-81
2021/05/08 15:18:59;;;;;;;4.55;2.08;;;614.60;998.40;;;;;;5053277;28;20120;-82
2021/05/08 15:21:25;;;;;;;5.55;2.53;;;589.70;972.80;;;;;;5052471;28;20025;-82
2021/05/08 15:23:51;;;;;;;5.22;2.30;;;589.70;972.80;;;;;;5052420;28;20032;-80
2021/05/08 15:26:16;;;;;;;8.77;2.33;;;614.40;998.40;;;;;;5052327;28;20524;-79
2021/05/08 15:28:42;;;;;;;6.75;2.72;;;589.70;972.80;;;;;;5052812;28;20389;-81
2021/05/08 15:31:08;;;;;;;5.40;2.85;;;589.60;972.80;;;;;;5052754;28;20445;-82
2021/05/08 15:33:34;;;;;;;6.82;2.67;;;589.60;972.80;;;;;;5069323;28;20497;-83
2021/05/08 15:36:00;;;;;;;9.00;2.83;;;589.30;998.40;;;;;;5053011;28;20049;-83
2021/05/08 15:38:28;;;;;;;9.40;2.65;;;589.30;998.40;;;;;;5052505;28;20116;-82
2021/05/08 15:40:57;;;;;;;6.18;2.92;;;589.30;998.40;;;;;;5052969;28;20053;-82
2021/05/08 15:43:23;;;;;;;5.97;2.67;;;588.90;998.40;;;;;;5052925;28;20048;-82
2021/05/08 15:45:49;;;;;;;8.15;3.40;;;564.10;998.40;;;;;;5052557;28;20378;-82
2021/05/08 15:48:15;;;;;;;7.68;3.20;;;564.10;1024.00;;;;;;5054858;28;20032;-82
2021/05/08 15:50:41;;;;;;;4.78;2.70;;;564.10;1024.00;;;;;;5056727;28;20054;-81
2021/05/08 15:53:07;;;;;;;6.40;3.33;;;563.80;1024.00;;;;;;5058712;28;20144;-86
2021/05/08 15:55:32;;;;;;;4.80;2.85;;;563.70;1024.00;;;;;;5055998;28;20036;-87
2021/05/08 15:57:58;;;;;;;5.95;2.50;;;563.60;1024.00;;;;;;5056630;28;20021;-82
2021/05/08 16:00:25;;;;;;;6.68;3.78;;;538.50;1024.00;;;;;;5056178;28;20025;-85
2021/05/08 16:02:50;;;;;;;7.97;3.85;;;538.20;1049.60;;;;;;5056203;28;20044;-83
2021/05/08 16:05:16;;;;;;;6.72;3.28;;;538.00;1049.60;;;;;;5055932;28;20029;-82
2021/05/08 16:07:43;;;;;;;11.82;5.50;;;537.90;1075.20;;;;;;5058445;28;20025;-81
2021/05/08 16:10:17;;;;;;;4.28;2.45;;;512.70;1049.60;;;;;;5057630;28;20120;-83
2021/05/08 16:12:43;;;;;;;6.32;2.72;;;512.90;1049.60;;;;;;5056600;28;20536;-82
2021/05/08 16:15:09;;;;;;;6.25;3.00;;;512.60;1075.20;;;;;;5055791;28;20025;-82
2021/05/08 16:17:35;;;;;;;7.60;3.38;;;512.50;1100.80;;;;;;5055860;28;20028;-86
2021/05/08 16:20:03;;;;;;;6.25;3.80;;;512.10;1100.80;;;;;;5056388;28;20029;-84
2021/05/08 16:22:28;;;;;;;6.32;3.90;;;512.00;1100.80;;;;;;5056275;28;20060;-81
2021/05/08 16:24:54;;;;;;;7.57;4.25;;;512.00;1126.40;;;;;;5055124;28;20028;-84
2021/05/08 16:27:20;;;;;;;9.05;3.47;;;512.00;1100.80;;;;;;5055938;28;20079;-82
2021/05/08 16:29:46;;;;;;;6.43;3.22;;;487.20;1100.80;;;;;;5055452;28;20032;-83
2021/05/08 16:32:11;;;;;;;5.90;3.35;;;487.10;1126.40;;;;;;5055600;28;20462;-82
2021/05/08 16:34:37;;;;;;;11.20;4.15;;;486.90;1126.40;;;;;;5055384;28;20021;-82
2021/05/08 16:37:03;;;;;;;9.63;5.18;;;487.00;1126.40;;;;;;5065207;28;20136;-85
2021/05/08 16:39:29;;;;;;;9.00;4.80;;;486.80;1152.00;;;;;;5070845;28;20381;-83
2021/05/08 16:41:55;;;;;;;8.10;3.80;;;486.80;1152.00;;;;;;5059258;28;20499;-83
2021/05/08 16:44:20;;;;;;;11.38;3.33;;;486.80;1152.00;;;;;;5066438;28;20074;-82
2021/05/08 16:46:46;;;;;;;12.52;4.22;;;486.70;1152.00;;;;;;5075261;28;20035;-83
2021/05/08 16:49:12;;;;;;;5.90;3.33;;;486.60;1152.00;;;;;;5060481;28;20025;-83
2021/05/08 16:51:38;;;;;;;6.70;3.20;;;486.50;1152.00;;;;;;5056108;28;20037;-84
2021/05/08 16:54:05;;;;;;;6.28;4.20;;;486.40;1152.00;;;;;;5054630;28;20020;-84
2021/05/08 16:56:31;;;;;;;4.97;3.15;;;461.60;1152.00;;;;;;5054908;28;20037;-83
2021/05/08 16:58:57;;;;;;;6.93;3.25;;;486.40;1177.60;;;;;;5054998;28;20169;-86
2021/05/08 17:01:23;;;;;;;8.77;3.38;;;461.50;1177.60;;;;;;5054393;28;20060;-84
2021/05/08 17:03:48;;;;;;;5.32;3.13;;;461.40;1203.20;;;;;;5055274;28;20025;-84
2021/05/08 17:06:14;;;;;;;7.35;3.80;;;461.40;1203.20;;;;;;5055030;28;20489;-88
2021/05/08 17:08:40;;;;;;;7.65;3.25;;;461.20;1203.20;;;;;;5055188;28;20025;-84
2021/05/08 17:11:06;;;;;;;9.00;4.03;;;461.30;1203.20;;;;;;5056530;28;20029;-85
2021/05/08 17:13:32;;;;;;;8.95;6.07;;;461.20;1203.20;;;;;;5055732;28;20461;-85
2021/05/08 17:15:58;;;;;;;6.63;4.00;;;461.20;1228.80;;;;;;5055171;28;20056;-84
2021/05/08 17:18:24;;;;;;;5.00;3.67;;;461.10;1228.80;;;;;;5056608;28;20021;-85
2021/05/08 17:20:50;;;;;;;8.05;5.13;;;461.00;1228.80;;;;;;5055459;28;20365;-86
2021/05/08 17:23:16;;;;;;;11.77;4.97;;;460.90;1280.00;;;;;;5055172;28;20429;-86
2021/05/08 17:25:42;;;;;;;17.05;5.03;;;460.80;1280.00;;;;;;5055014;28;20058;-87
2021/05/08 17:28:07;;;;;;;11.23;5.20;;;460.90;1254.40;;;;;;5054927;28;20097;-87